createdAt,value
2018-12-18T00:01:43.528Z,3.30
2018-12-18T00:06:46.423Z,3.30
2018-12-18T00:11:47.460Z,3.30
2018-12-18T00:16:48.242Z,3.30
2018-12-18T00:21:48.944Z,3.30
2018-12-18T00:26:49.858Z,3.30
2018-12-18T00:31:51.901Z,3.30
2018-12-18T00:36:52.774Z,3.30
2018-12-18T00:41:57.375Z,3.20
2018-12-18T00:46:58.264Z,3.30
2018-12-18T00:51:59.020Z,3.20
2018-12-18T00:56:59.843Z,3.20
2018-12-18T01:02:00.907Z,3.10
2018-12-18T01:07:01.762Z,3.10
2018-12-18T01:12:02.566Z,3.10
2018-12-18T01:17:03.563Z,3.10
2018-12-18T01:22:04.256Z,3.10
2018-12-18T01:27:05.077Z,3.10
2018-12-18T01:32:05.974Z,3.10
2018-12-18T01:37:06.873Z,3.10
2018-12-18T01:42:07.604Z,3.10
2018-12-18T01:47:08.346Z,3.10
2018-12-18T01:52:09.227Z,3.10
2018-12-18T01:57:10.058Z,3.00
2018-12-18T02:02:10.825Z,3.00
2018-12-18T02:07:11.627Z,3.00
2018-12-18T02:12:13.298Z,2.90
2018-12-18T02:17:14.966Z,3.00
2018-12-18T02:22:16.120Z,2.90
2018-12-18T02:27:17.029Z,2.90
2018-12-18T02:32:17.853Z,2.90
2018-12-18T02:37:18.659Z,3.00
2018-12-18T02:42:19.635Z,3.00
2018-12-18T02:47:20.577Z,2.90
2018-12-18T02:52:24.991Z,2.90
2018-12-18T02:57:25.856Z,2.80
2018-12-18T03:02:26.529Z,2.70
2018-12-18T03:07:30.055Z,2.50
2018-12-18T03:12:30.954Z,2.30
2018-12-18T03:17:32.854Z,2.20
2018-12-18T03:22:33.687Z,2.00
2018-12-18T03:27:34.453Z,1.90
2018-12-18T03:32:40.881Z,1.70
2018-12-18T03:37:42.264Z,1.60
2018-12-18T03:42:43.076Z,1.50
2018-12-18T03:47:43.990Z,1.40
2018-12-18T03:52:44.654Z,1.30
2018-12-18T03:57:45.647Z,1.10
2018-12-18T04:02:46.444Z,1.00
2018-12-18T04:07:47.783Z,0.90
2018-12-18T04:12:48.580Z,0.80
2018-12-18T04:17:49.569Z,0.70
2018-12-18T04:22:50.426Z,0.50
2018-12-18T04:27:51.194Z,0.50
2018-12-18T04:32:51.871Z,0.40
2018-12-18T04:37:54.483Z,0.30
2018-12-18T04:42:55.459Z,0.30
2018-12-18T04:47:56.300Z,0.20
2018-12-18T04:52:57.260Z,0.10
2018-12-18T04:57:58.019Z,0.00
2018-12-18T05:02:58.776Z,0.00
2018-12-18T05:08:00.262Z,0.00
2018-12-18T05:13:02.124Z,-0.10
2018-12-18T05:18:03.310Z,-0.10
2018-12-18T05:23:04.016Z,-0.10
2018-12-18T05:28:04.914Z,-0.10
2018-12-18T05:33:05.842Z,-0.10
2018-12-18T05:38:06.787Z,-0.10
2018-12-18T05:43:08.167Z,-0.10
2018-12-18T05:48:08.907Z,-0.20
2018-12-18T05:53:09.566Z,-0.30
2018-12-18T05:58:10.283Z,-0.30
2018-12-18T06:03:11.133Z,-0.40
2018-12-18T06:08:11.964Z,-0.40
2018-12-18T06:13:12.732Z,-0.50
2018-12-18T06:18:13.427Z,-0.50
2018-12-18T06:23:14.249Z,-0.70
2018-12-18T06:28:15.040Z,-0.70
2018-12-18T06:33:15.891Z,-0.80
2018-12-18T06:38:16.729Z,-0.80
2018-12-18T06:43:17.452Z,-0.90
2018-12-18T06:48:18.296Z,-0.90
2018-12-18T06:53:19.292Z,-0.90
2018-12-18T06:58:20.350Z,-0.90
2018-12-18T07:03:21.443Z,-0.90
2018-12-18T07:08:22.665Z,-0.80
2018-12-18T07:13:23.612Z,-0.80
2018-12-18T07:18:24.461Z,-0.80
2018-12-18T07:23:25.304Z,-0.60
2018-12-18T07:28:26.121Z,-0.50
2018-12-18T07:33:26.997Z,-0.50
2018-12-18T07:38:27.827Z,-0.40
2018-12-18T07:43:28.714Z,-0.30
2018-12-18T07:48:29.446Z,-0.30
2018-12-18T07:53:30.226Z,-0.20
2018-12-18T07:58:31.010Z,-0.10
2018-12-18T08:03:31.774Z,0.00
2018-12-18T08:08:32.574Z,0.10
2018-12-18T08:13:33.345Z,0.20
2018-12-18T08:18:34.146Z,0.20
2018-12-18T08:23:34.952Z,0.30
2018-12-18T08:28:35.734Z,0.50
2018-12-18T08:33:36.513Z,0.70
2018-12-18T08:38:37.336Z,0.90
2018-12-18T08:43:38.051Z,1.10
2018-12-18T08:48:38.934Z,1.30
2018-12-18T08:53:44.659Z,1.50
2018-12-18T08:58:46.522Z,1.70
2018-12-18T09:03:47.247Z,1.90
2018-12-18T09:08:48.561Z,2.00
2018-12-18T09:13:49.324Z,2.10
2018-12-18T09:18:49.990Z,2.20
2018-12-18T09:23:50.832Z,2.20
2018-12-18T09:28:51.621Z,2.30
2018-12-18T09:33:52.449Z,2.30
2018-12-18T09:38:58.537Z,2.50
2018-12-18T09:44:04.457Z,2.60
2018-12-18T09:49:05.399Z,2.70
2018-12-18T09:54:06.156Z,2.90
2018-12-18T09:59:06.941Z,3.10
2018-12-18T10:04:07.619Z,3.30
2018-12-18T10:09:09.726Z,3.50
2018-12-18T10:14:10.863Z,3.80
2018-12-18T10:19:11.927Z,4.20
2018-12-18T10:24:12.709Z,4.50
2018-12-18T10:29:20.204Z,4.90
2018-12-18T10:34:20.940Z,5.20
2018-12-18T10:39:21.877Z,5.50
2018-12-18T10:44:22.810Z,5.80
2018-12-18T10:49:23.851Z,6.10
2018-12-18T10:54:24.509Z,6.30
2018-12-18T10:59:25.313Z,6.60
2018-12-18T11:04:27.802Z,6.80
2018-12-18T11:09:28.948Z,7.00
2018-12-18T11:14:29.905Z,7.20
2018-12-18T11:19:30.705Z,7.30
2018-12-18T11:24:31.383Z,7.40
2018-12-18T11:29:32.188Z,7.60
2018-12-18T11:34:32.935Z,7.70
2018-12-18T11:39:33.749Z,7.80
2018-12-18T11:44:34.663Z,7.80
2018-12-18T11:49:35.426Z,7.90
2018-12-18T11:54:36.209Z,8.00
2018-12-18T11:59:36.990Z,8.10
2018-12-18T12:04:37.819Z,8.30
2018-12-18T12:09:38.699Z,8.30
2018-12-18T12:14:40.460Z,8.30
2018-12-18T12:19:41.279Z,8.10
2018-12-18T12:47:12.239Z,8.20
2018-12-18T12:52:19.174Z,8.20
2018-12-18T12:57:19.985Z,8.30
2018-12-18T13:02:20.792Z,8.40
2018-12-18T13:13:15.138Z,8.60
2018-12-18T13:18:37.495Z,8.50
2018-12-18T13:23:41.454Z,8.40
2018-12-18T13:28:46.054Z,8.20
2018-12-18T13:33:47.030Z,8.20
2018-12-18T13:38:47.771Z,8.10
2018-12-18T13:43:48.510Z,7.90
2018-12-18T13:48:49.319Z,7.80
2018-12-18T13:53:50.062Z,7.80
2018-12-18T13:58:50.752Z,7.70
2018-12-18T14:03:51.519Z,7.70
2018-12-18T14:08:52.318Z,7.70
2018-12-18T14:13:53.116Z,7.70
2018-12-18T14:18:53.966Z,7.70
2018-12-18T14:23:54.723Z,7.60
2018-12-18T14:28:55.415Z,7.50
2018-12-18T14:33:56.182Z,7.40
2018-12-18T14:38:57.008Z,7.30
2018-12-18T14:43:57.811Z,7.20
2018-12-18T14:48:58.570Z,7.20
2018-12-18T14:53:59.421Z,7.30
2018-12-18T14:59:00.411Z,7.10
2018-12-18T15:04:02.755Z,6.90
2018-12-18T15:09:06.256Z,6.60
2018-12-18T15:14:08.371Z,6.20
2018-12-18T15:19:09.224Z,5.70
2018-12-18T15:24:10.008Z,5.30
2018-12-18T15:29:10.776Z,4.90
2018-12-18T15:34:11.570Z,4.50
2018-12-18T15:39:12.640Z,4.20
2018-12-18T15:44:15.581Z,3.80
2018-12-18T15:49:16.804Z,3.50
2018-12-18T15:54:17.551Z,3.20
2018-12-18T15:59:18.596Z,3.00
2018-12-18T16:04:19.432Z,2.80
2018-12-18T16:09:20.459Z,2.60
2018-12-18T16:14:21.351Z,2.40
2018-12-18T16:19:22.691Z,2.20
2018-12-18T16:24:23.957Z,2.10
2018-12-18T16:29:26.087Z,1.90
2018-12-18T16:34:26.857Z,1.80
2018-12-18T16:39:27.739Z,1.70
2018-12-18T16:44:28.667Z,1.60
2018-12-18T16:49:29.592Z,1.50
2018-12-18T16:54:30.831Z,1.40
2018-12-18T16:59:32.023Z,1.30
2018-12-18T17:04:32.903Z,1.30
2018-12-18T17:09:34.274Z,1.30
2018-12-18T17:14:35.101Z,1.30
2018-12-18T17:19:35.770Z,1.20
2018-12-18T17:24:36.615Z,1.20
2018-12-18T17:29:37.469Z,1.10
2018-12-18T17:34:46.903Z,1.10
2018-12-18T17:39:47.863Z,1.10
2018-12-18T17:44:48.712Z,1.00
2018-12-18T17:49:50.157Z,0.90
2018-12-18T17:54:51.168Z,0.90
2018-12-18T17:59:52.113Z,0.80
2018-12-18T18:04:53.349Z,0.80
2018-12-18T18:09:54.577Z,0.80
2018-12-18T18:14:55.372Z,0.90
2018-12-18T18:19:56.141Z,0.90
2018-12-18T18:24:56.935Z,0.90
2018-12-18T18:29:57.717Z,0.90
2018-12-18T18:34:58.541Z,0.90
2018-12-18T18:39:59.538Z,0.90
2018-12-18T18:45:00.691Z,0.90
2018-12-18T18:50:01.635Z,0.90
2018-12-18T18:55:03.111Z,1.00
2018-12-18T19:05:44.011Z,1.00
2018-12-18T19:11:09.928Z,1.10
2018-12-18T19:16:40.939Z,1.10
2018-12-18T19:21:46.362Z,1.20
2018-12-18T19:26:47.451Z,1.30
2018-12-18T19:31:48.992Z,1.20
2018-12-18T19:36:51.840Z,1.20
2018-12-18T19:41:52.789Z,1.20
2018-12-18T19:46:54.662Z,1.10
2018-12-18T19:51:55.515Z,1.10
2018-12-18T19:56:56.323Z,1.10
2018-12-18T20:01:57.182Z,1.10
2018-12-18T20:06:58.117Z,1.20
2018-12-18T20:11:59.086Z,1.30
2018-12-18T20:17:00.303Z,1.30
2018-12-18T20:22:01.346Z,1.40
2018-12-18T20:27:03.142Z,1.40
2018-12-18T20:32:04.408Z,1.40
2018-12-18T20:37:06.745Z,1.40
2018-12-18T20:42:07.629Z,1.40
2018-12-18T20:47:08.372Z,1.50
2018-12-18T20:52:09.339Z,1.50
2018-12-18T20:57:10.798Z,1.50
2018-12-18T21:02:12.105Z,1.60
2018-12-18T21:07:13.739Z,1.60
2018-12-18T21:12:14.446Z,1.60
2018-12-18T21:17:15.193Z,1.60
2018-12-18T21:22:16.085Z,1.60
2018-12-18T21:27:17.084Z,1.60
2018-12-18T21:32:18.016Z,1.60
2018-12-18T21:37:19.026Z,1.60
2018-12-18T21:42:20.140Z,1.70
2018-12-18T21:47:20.930Z,1.60
2018-12-18T21:52:21.930Z,1.60
2018-12-18T21:57:22.806Z,1.50
2018-12-18T22:02:24.276Z,1.50
2018-12-18T22:07:26.120Z,1.50
2018-12-18T22:12:28.161Z,1.50
2018-12-18T22:17:29.299Z,1.50
2018-12-18T22:22:30.304Z,1.50
2018-12-18T22:27:31.264Z,1.40
2018-12-18T22:32:32.515Z,1.40
2018-12-18T22:37:33.448Z,1.30
2018-12-18T22:42:34.166Z,1.30
2018-12-18T22:47:35.048Z,1.30
2018-12-18T22:52:35.779Z,1.30
2018-12-18T22:57:36.547Z,1.30
2018-12-18T23:02:37.506Z,1.30
2018-12-18T23:07:38.433Z,1.20
2018-12-18T23:12:39.708Z,1.20
2018-12-18T23:17:40.694Z,1.20
2018-12-18T23:22:41.457Z,1.10
2018-12-18T23:27:42.728Z,1.10
2018-12-18T23:32:43.567Z,1.10
2018-12-18T23:37:44.674Z,1.10
2018-12-18T23:42:50.777Z,1.10
2018-12-18T23:47:51.940Z,1.10
2018-12-18T23:52:53.642Z,1.10
2018-12-18T23:57:54.568Z,1.10
